ADDS METAR Data INFO
IDs: Format: Raw Decoded Include TAF

Data at: 0444 UTC 24 Apr 2018

KHQZ 240435Z AUTO 22003KT 10SM CLR 15/12 A3004 RMK AO1 T01540119
KHQZ 240415Z AUTO 00000KT 10SM CLR 15/12 A3004 RMK AO1 T01540124
KHQZ 240355Z AUTO 00000KT 10SM CLR 14/12 A3004 RMK AO1 T01430116
KHQZ 240335Z AUTO 00000KT 10SM CLR 15/11 A3003 RMK AO1 T01510110
KHQZ 240315Z AUTO 00000KT 10SM CLR 15/10 A3003 RMK AO1 T01530103
KHQZ 240255Z AUTO 00000KT 10SM CLR 15/10 A3003 RMK AO1 T01510096
KHQZ 240235Z AUTO 00000KT 10SM CLR 16/11 A3002 RMK AO1 T01560109
KHQZ 240215Z AUTO 00000KT 10SM CLR 17/10 A3001 RMK AO1 T01700104
KHQZ 240155Z AUTO 00000KT 10SM CLR 18/11 A3000 RMK AO1 T01820110
KHQZ 240050Z 00000KT 10SM CLR 21/11 A2999
KHQZ 232350Z 34005KT 10SM CLR 22/11 A2999
KHQZ 232250Z 34008KT 10SM SCT048 22/11 A3000
KHQZ 232150Z COR 36009G16KT 10SM SCT043 22/11 A3001
KHQZ 232050Z 35008G19KT 10SM SCT041 22/12 A3002
KHQZ 231950Z 36011G20KT 10SM SCT037 21/11 A3005
KHQZ 231850Z 33010G19KT 10SM SCT033 20/11 A3007
KHQZ 231750Z 32008G16KT 10SM BKN031 19/11 A3008
KHQZ 231650Z 33011G17KT 10SM SCT025 18/11 A3009
KHQZ 231550Z 32013G17KT 10SM SCT025 17/10 A3010
KHQZ 231450Z 31012KT 10SM BKN023 16/10 A3009
KHQZ 231430Z 31010G16KT 10SM BKN021 16/10 A3010
KHQZ 231350Z 29009KT 10SM SCT023 14/09 A3009
KHQZ 231250Z 31008KT 10SM SCT015 12/09 A3008
KHQZ 231150Z 32008KT 10SM OVC017 10/08 A3007
KHQZ 231135Z AUTO 32004KT 10SM CLR 10/08 A3006 RMK AO1 T01010082
KHQZ 231115Z AUTO 32006KT 10SM CLR 11/08 A3005 RMK AO1 T01050082
KHQZ 231055Z AUTO 33006KT 10SM CLR 11/08 A3004 RMK AO1 T01050082
KHQZ 231035Z AUTO 33006KT 10SM CLR 11/08 A3004 RMK AO1 T01060082
KHQZ 231015Z AUTO 32005KT 10SM CLR 11/08 A3003 RMK AO1 T01070083
KHQZ 230955Z AUTO 32005KT 10SM CLR 11/08 A3003 RMK AO1 T01060083
KHQZ 230935Z AUTO 34006KT 10SM CLR 11/08 A3002 RMK AO1 T01080083
KHQZ 230915Z AUTO 33005KT 10SM CLR 12/09 A3003 RMK AO1 T01150085
KHQZ 230855Z AUTO 33006KT 10SM CLR 12/09 A3002 RMK AO1 T01160085
KHQZ 230835Z AUTO 32006KT 10SM CLR 12/09 A3002 RMK AO1 T01200086
KHQZ 230815Z AUTO 33007KT 10SM CLR 12/08 A3002 RMK AO1 T01210083
KHQZ 230755Z AUTO 32007KT 10SM CLR 12/08 A3002 RMK AO1 T01200080
KHQZ 230735Z AUTO 31006KT 10SM CLR 13/08 A3002 RMK AO1 T01250080
KHQZ 230715Z AUTO 29005KT 10SM CLR 13/08 A3003 RMK AO1 T01250077
KHQZ 230655Z AUTO 29006KT 10SM CLR 13/08 A3003 RMK AO1 T01280077
KHQZ 230635Z AUTO 28006KT 10SM CLR 13/08 A3003 RMK AO1 T01280077
KHQZ 230615Z AUTO 27005KT 10SM CLR 13/08 A3003 RMK AO1 T01250075
KHQZ 230555Z AUTO 29004KT 10SM CLR 13/08 A3003 RMK AO1 T01300075 10180 20128 401970105
KHQZ 230535Z AUTO 28004KT 10SM CLR 13/08 A3003 RMK AO1 T01290077
KHQZ 230520Z AUTO 28004KT 10SM CLR 13/08 A3003 RMK AO1 T01310078
KHQZ 230455Z AUTO 26003KT 10SM CLR 14/08 A3003 RMK AO1 T01360078
KHQZ 230435Z AUTO 28003KT 10SM CLR 14/08 A3003 RMK AO1 T01370075
KHQZ 230415Z AUTO 28004KT 10SM SCT048 14/08 A3004 RMK AO1 T01400075
KHQZ 230355Z AUTO 28003KT 10SM SCT048 14/08 A3004 RMK AO1 T01370075
KHQZ 230335Z AUTO 28003KT 10SM CLR 15/07 A3005 RMK AO1 T01460072
KHQZ 230315Z AUTO 28003KT 10SM SCT060 15/07 A3004 RMK AO1 T01530073
KHQZ 230255Z AUTO 29003KT 10SM BKN060 16/08 A3004 RMK AO1 T01550075
KHQZ 230235Z AUTO 32004KT 10SM OVC060 16/08 A3003 RMK AO1 T01600076
KHQZ 230215Z AUTO 31004KT 10SM OVC060 16/08 A3003 RMK AO1 T01600075
KHQZ 230155Z AUTO 32006KT 10SM BKN060 16/07 A3003 RMK AO1 T01600071
KHQZ 230000Z 30008KT 10SM BKN060 17/07 A3002
KHQZ 222350Z 32009KT 10SM BKN050 18/06 A3002
KHQZ 222250Z 31011G24KT 10SM BKN055 18/06 A3002
KHQZ 222150Z 29014G25KT 10SM BKN049 18/06 A3002
KHQZ 222050Z 30012G23KT 10SM BKN049 18/06 A3002
KHQZ 221950Z 27013G20KT 10SM BKN045 19/07 A3004
KHQZ 221850Z 29017G23KT 10SM BKN035 18/06 A3007
KHQZ 221750Z 30017G23KT 10SM SCT036 17/07 A3009
KHQZ 221650Z 30012G18KT 10SM SCT032 16/07 A3009